createdAt,value
2017-07-23T00:01:25.152Z,97570.66
2017-07-23T00:03:52.576Z,97575.05
2017-07-23T00:06:20.027Z,97579.30
2017-07-23T00:08:47.487Z,97585.02
2017-07-23T00:11:14.923Z,97590.16
2017-07-23T00:13:42.385Z,97591.33
2017-07-23T00:16:09.791Z,97593.43
2017-07-23T00:18:37.243Z,97591.92
2017-07-23T00:21:04.680Z,97603.31
2017-07-23T00:23:32.123Z,97615.51
2017-07-23T00:25:59.563Z,97620.65
2017-07-23T00:28:26.971Z,97620.69
2017-07-23T00:30:54.481Z,97611.95
2017-07-23T00:33:21.895Z,97612.05
2017-07-23T00:35:49.381Z,97621.84
2017-07-23T00:38:16.787Z,97630.81
2017-07-23T00:40:44.262Z,97623.27
2017-07-23T00:43:11.688Z,97615.83
2017-07-23T00:45:39.131Z,97615.92
2017-07-23T00:48:06.571Z,97616.03
2017-07-23T00:50:33.974Z,97628.70
2017-07-23T00:53:01.429Z,97616.52
2017-07-23T00:55:28.859Z,97613.44
2017-07-23T00:57:56.267Z,97609.67
2017-07-23T01:00:24.170Z,97607.43
2017-07-23T01:02:51.582Z,97610.64
2017-07-23T01:05:18.995Z,97620.02
2017-07-23T01:07:46.424Z,97631.39
2017-07-23T01:10:13.835Z,97634.73
2017-07-23T01:12:41.281Z,97635.74
2017-07-23T01:15:08.703Z,97634.55
2017-07-23T01:17:36.124Z,97625.49
2017-07-23T01:20:04.282Z,97628.45
2017-07-23T01:22:31.690Z,97628.02
2017-07-23T01:24:59.137Z,97624.96
2017-07-23T01:27:26.560Z,97624.89
2017-07-23T01:29:53.962Z,97618.64
2017-07-23T01:32:21.426Z,97620.00
2017-07-23T01:34:48.872Z,97624.34
2017-07-23T01:37:16.280Z,97624.00
2017-07-23T01:39:43.715Z,97618.41
2017-07-23T01:42:11.167Z,97621.19
2017-07-23T01:44:38.567Z,97639.50
2017-07-23T01:47:05.978Z,97647.50
2017-07-23T01:49:33.412Z,97643.30
2017-07-23T01:52:00.832Z,97637.87
2017-07-23T01:54:28.268Z,97645.66
2017-07-23T01:56:55.697Z,97643.25
2017-07-23T01:59:23.116Z,97640.85
2017-07-23T02:01:50.545Z,97641.99
2017-07-23T02:04:17.961Z,97647.38
2017-07-23T02:06:45.452Z,97651.22
2017-07-23T02:09:12.867Z,97648.63
2017-07-23T02:11:40.300Z,97650.36
2017-07-23T02:14:07.728Z,97649.81
2017-07-23T02:16:35.131Z,97656.53
2017-07-23T02:19:02.568Z,97660.91
2017-07-23T02:21:29.971Z,97656.55
2017-07-23T02:23:58.081Z,97669.44
2017-07-23T02:26:25.481Z,97668.76
2017-07-23T02:28:52.909Z,97674.42
2017-07-23T02:31:20.307Z,97657.69
2017-07-23T02:33:47.795Z,97651.53
2017-07-23T02:36:15.239Z,97662.18
2017-07-23T02:38:42.643Z,97661.63
2017-07-23T02:41:10.080Z,97676.20
2017-07-23T02:43:37.526Z,97666.67
2017-07-23T02:46:05.016Z,97650.72
2017-07-23T02:48:32.420Z,97655.28
2017-07-23T02:50:59.847Z,97645.92
2017-07-23T02:53:27.673Z,97640.76
2017-07-23T02:55:55.088Z,97631.86
2017-07-23T02:58:22.497Z,97623.23
2017-07-23T03:00:50.001Z,97618.34
2017-07-23T03:03:17.439Z,97613.58
2017-07-23T03:05:45.063Z,97621.63
2017-07-23T03:08:12.498Z,97625.09
2017-07-23T03:10:39.938Z,97620.83
2017-07-23T03:13:07.358Z,97621.57
2017-07-23T03:15:34.797Z,97634.45
2017-07-23T03:18:02.212Z,97644.20
2017-07-23T03:20:29.666Z,97635.12
2017-07-23T03:22:57.075Z,97641.79
2017-07-23T03:25:24.507Z,97653.34
2017-07-23T03:27:51.962Z,97660.13
2017-07-23T03:30:19.380Z,97658.26
2017-07-23T03:32:46.792Z,97656.45
2017-07-23T03:35:14.231Z,97668.42
2017-07-23T03:37:41.644Z,97662.42
2017-07-23T03:40:09.088Z,97659.80
2017-07-23T03:42:36.511Z,97662.69
2017-07-23T03:45:04.806Z,97673.66
2017-07-23T03:47:32.215Z,97672.19
2017-07-23T03:49:59.695Z,97673.53
2017-07-23T03:52:27.255Z,97667.98
2017-07-23T03:54:54.668Z,97668.47
2017-07-23T03:57:22.095Z,97676.37
2017-07-23T03:59:49.492Z,97675.24
2017-07-23T04:02:16.934Z,97674.09
2017-07-23T04:04:44.419Z,97680.62
2017-07-23T04:07:11.839Z,97680.12
2017-07-23T04:09:39.353Z,97693.24
2017-07-23T04:12:06.824Z,97691.98
2017-07-23T04:14:34.410Z,97702.72
2017-07-23T04:17:01.815Z,97707.77
2017-07-23T04:19:29.255Z,97704.98
2017-07-23T04:21:56.749Z,97705.40
2017-07-23T04:24:24.319Z,97712.21
2017-07-23T04:26:51.732Z,97713.98
2017-07-23T04:29:19.163Z,97715.20
2017-07-23T04:31:46.599Z,97724.06
2017-07-23T04:34:14.025Z,97730.56
2017-07-23T04:36:41.448Z,97742.31
2017-07-23T04:39:09.085Z,97747.78
2017-07-23T04:41:36.511Z,97743.64
2017-07-23T04:44:03.965Z,97735.88
2017-07-23T04:46:31.386Z,97733.34
2017-07-23T04:48:58.856Z,97733.55
2017-07-23T04:51:26.281Z,97750.29
2017-07-23T04:53:53.692Z,97744.68
2017-07-23T04:56:21.207Z,97746.28
2017-07-23T04:58:48.707Z,97739.78
2017-07-23T05:01:16.297Z,97748.47
2017-07-23T05:03:43.793Z,97746.94
2017-07-23T05:06:11.522Z,97743.14
2017-07-23T05:08:38.939Z,97741.36
2017-07-23T05:11:06.348Z,97746.80
2017-07-23T05:13:33.809Z,97746.38
2017-07-23T05:16:01.235Z,97739.79
2017-07-23T05:18:28.669Z,97749.86
2017-07-23T05:20:56.073Z,97759.02
2017-07-23T05:23:23.963Z,97761.08
2017-07-23T05:25:51.367Z,97756.77
2017-07-23T05:28:18.775Z,97757.08
2017-07-23T05:30:46.265Z,97755.63
2017-07-23T05:33:13.691Z,97764.76
2017-07-23T05:35:41.103Z,97768.17
2017-07-23T05:38:08.520Z,97761.02
2017-07-23T05:40:36.056Z,97768.17
2017-07-23T05:43:03.480Z,97772.34
2017-07-23T05:45:30.910Z,97774.02
2017-07-23T05:47:58.457Z,97773.23
2017-07-23T05:50:25.916Z,97779.23
2017-07-23T05:52:53.335Z,97787.98
2017-07-23T05:55:20.755Z,97793.48
2017-07-23T05:57:48.180Z,97791.09
2017-07-23T06:00:15.592Z,97787.06
2017-07-23T06:02:43.032Z,97782.77
2017-07-23T06:05:10.447Z,97784.19
2017-07-23T06:07:38.352Z,97788.84
2017-07-23T06:10:05.839Z,97787.48
2017-07-23T06:12:33.237Z,97787.14
2017-07-23T06:15:00.676Z,97783.03
2017-07-23T06:17:28.083Z,97789.56
2017-07-23T06:19:55.511Z,97798.25
2017-07-23T06:22:22.936Z,97800.03
2017-07-23T06:24:50.395Z,97797.58
2017-07-23T06:27:17.885Z,97793.29
2017-07-23T06:29:45.793Z,97789.97
2017-07-23T06:32:13.182Z,97785.30
2017-07-23T06:34:40.671Z,97799.80
2017-07-23T06:37:08.104Z,97806.63
2017-07-23T06:39:35.628Z,97808.59
2017-07-23T06:42:03.090Z,97806.47
2017-07-23T06:44:30.520Z,97804.02
2017-07-23T06:46:58.046Z,97794.06
2017-07-23T06:49:25.466Z,97792.50
2017-07-23T06:51:52.901Z,97798.17
2017-07-23T06:54:20.454Z,97791.80
2017-07-23T06:56:47.847Z,97790.81
2017-07-23T06:59:15.295Z,97804.28
2017-07-23T07:01:42.706Z,97801.88
2017-07-23T07:04:10.156Z,97804.02
2017-07-23T07:06:37.594Z,97802.41
2017-07-23T07:09:05.019Z,97808.83
2017-07-23T07:11:32.439Z,97811.78
2017-07-23T07:13:59.877Z,97809.16
2017-07-23T07:16:27.301Z,97815.90
2017-07-23T07:18:55.127Z,97816.25
2017-07-23T07:21:22.543Z,97816.49
2017-07-23T07:23:50.000Z,97826.01
2017-07-23T07:26:17.457Z,97824.55
2017-07-23T07:28:44.875Z,97823.83
2017-07-23T07:31:12.388Z,97829.08
2017-07-23T07:33:40.548Z,97830.78
2017-07-23T07:36:08.051Z,97831.63
2017-07-23T07:38:35.541Z,97840.45
2017-07-23T07:41:03.040Z,97844.72
2017-07-23T07:43:30.454Z,97848.04
2017-07-23T07:45:57.851Z,97849.20
2017-07-23T07:48:25.316Z,97851.52
2017-07-23T07:50:52.726Z,97845.73
2017-07-23T07:53:20.166Z,97850.43
2017-07-23T07:55:47.572Z,97856.08
2017-07-23T07:58:15.027Z,97850.84
2017-07-23T08:00:42.664Z,97845.33
2017-07-23T08:03:10.207Z,97835.84
2017-07-23T08:05:37.664Z,97841.70
2017-07-23T08:08:05.112Z,97846.92
2017-07-23T08:10:33.068Z,97845.89
2017-07-23T08:13:00.599Z,97841.17
2017-07-23T08:15:28.147Z,97853.91
2017-07-23T08:17:55.556Z,97848.95
2017-07-23T08:20:23.006Z,97844.13
2017-07-23T08:22:50.419Z,97844.20
2017-07-23T08:25:19.500Z,97844.78
2017-07-23T08:27:47.031Z,97852.22
2017-07-23T08:30:14.433Z,97849.34
2017-07-23T08:32:41.868Z,97837.09
2017-07-23T08:35:09.336Z,97847.06
2017-07-23T08:37:36.788Z,97841.14
2017-07-23T08:40:04.251Z,97846.48
2017-07-23T08:42:31.728Z,97843.98
2017-07-23T08:44:59.182Z,97846.52
2017-07-23T08:47:26.669Z,97851.67
2017-07-23T08:49:54.099Z,97846.67
2017-07-23T08:52:21.551Z,97852.90
2017-07-23T08:54:49.066Z,97852.03
2017-07-23T08:57:16.572Z,97849.71
2017-07-23T08:59:44.171Z,97848.72
2017-07-23T09:02:12.115Z,97852.16
2017-07-23T09:04:39.558Z,97857.86
2017-07-23T09:07:06.979Z,97860.27
2017-07-23T09:09:34.428Z,97849.64
2017-07-23T09:12:01.900Z,97857.58
2017-07-23T09:14:29.324Z,97850.60
2017-07-23T09:16:56.804Z,97852.55
2017-07-23T09:19:24.200Z,97853.02
2017-07-23T09:21:51.626Z,97856.01
2017-07-23T09:24:19.035Z,97866.40
2017-07-23T09:26:46.497Z,97858.22
2017-07-23T09:29:13.962Z,97868.06
2017-07-23T09:31:42.281Z,97871.38
2017-07-23T09:34:09.795Z,97869.04
2017-07-23T09:36:37.216Z,97876.55
2017-07-23T09:39:04.690Z,97879.38
2017-07-23T09:41:32.138Z,97867.71
2017-07-23T09:43:59.666Z,97869.31
2017-07-23T09:46:27.102Z,97871.73
2017-07-23T09:48:54.573Z,97874.07
2017-07-23T09:51:21.987Z,97868.33
2017-07-23T09:53:49.489Z,97875.61
2017-07-23T09:56:17.009Z,97869.88
2017-07-23T09:58:44.536Z,97873.39
2017-07-23T10:01:12.054Z,97871.14
2017-07-23T10:03:39.476Z,97876.06
2017-07-23T10:06:07.099Z,97880.89
2017-07-23T10:08:34.559Z,97882.77
2017-07-23T10:11:02.035Z,97879.38
2017-07-23T10:13:29.605Z,97879.95
2017-07-23T10:15:57.103Z,97878.70
2017-07-23T10:18:24.542Z,97886.85
2017-07-23T10:20:51.957Z,97880.03
2017-07-23T10:23:19.453Z,97880.02
2017-07-23T10:25:46.898Z,97880.48
2017-07-23T10:28:14.364Z,97881.77
2017-07-23T10:30:42.161Z,97874.37
2017-07-23T10:33:09.591Z,97883.30
2017-07-23T10:35:37.042Z,97875.36
2017-07-23T10:38:04.511Z,97877.42
2017-07-23T10:40:31.988Z,97879.51
2017-07-23T10:42:59.484Z,97879.48
2017-07-23T10:45:26.903Z,97877.55
2017-07-23T10:47:54.354Z,97881.23
2017-07-23T10:50:21.804Z,97880.73
2017-07-23T10:52:49.243Z,97882.72
2017-07-23T10:55:16.717Z,97878.84
2017-07-23T10:57:44.133Z,97870.96
2017-07-23T11:00:11.554Z,97875.37
2017-07-23T11:02:39.000Z,97872.42
2017-07-23T11:05:06.425Z,97872.64
2017-07-23T11:07:34.023Z,97875.95
2017-07-23T11:10:01.619Z,97874.53
2017-07-23T11:12:29.229Z,97875.34
2017-07-23T11:14:56.763Z,97871.86
2017-07-23T11:17:24.215Z,97875.45
2017-07-23T11:19:51.641Z,97866.99
2017-07-23T11:22:19.078Z,97872.88
2017-07-23T11:24:46.573Z,97873.80
2017-07-23T11:27:14.027Z,97867.35
2017-07-23T11:29:41.563Z,97870.38
2017-07-23T11:32:09.144Z,97866.36
2017-07-23T11:34:36.542Z,97849.74
2017-07-23T11:37:04.201Z,97861.13
2017-07-23T11:39:31.636Z,97855.30
2017-07-23T11:41:59.113Z,97854.36
2017-07-23T11:44:26.771Z,97859.11
2017-07-23T11:46:54.199Z,97857.53
2017-07-23T11:49:21.656Z,97855.00
2017-07-23T11:51:49.079Z,97851.52
2017-07-23T11:54:16.551Z,97848.16
2017-07-23T11:56:44.024Z,97846.13
2017-07-23T11:59:11.451Z,97845.27
2017-07-23T12:01:38.868Z,97838.42
2017-07-23T12:04:06.320Z,97827.20
2017-07-23T12:06:33.741Z,97831.46
2017-07-23T12:09:01.180Z,97831.36
2017-07-23T12:11:28.591Z,97835.72
2017-07-23T12:13:56.045Z,97828.58
2017-07-23T12:16:23.604Z,97831.98
2017-07-23T12:18:51.057Z,97845.20
2017-07-23T12:21:18.643Z,97844.62
2017-07-23T12:23:46.115Z,97846.14
2017-07-23T12:26:13.731Z,97845.20
2017-07-23T12:28:41.350Z,97846.97
2017-07-23T12:31:08.775Z,97833.10
2017-07-23T12:33:36.289Z,97835.53
2017-07-23T12:36:03.978Z,97834.86
2017-07-23T12:38:31.408Z,97831.97
2017-07-23T12:40:58.854Z,97837.22
2017-07-23T12:43:26.375Z,97834.33
2017-07-23T12:45:53.823Z,97829.42
2017-07-23T12:48:21.351Z,97834.33
2017-07-23T12:50:48.909Z,97828.81
2017-07-23T12:53:16.343Z,97829.69
2017-07-23T12:55:44.373Z,97815.45
2017-07-23T12:58:11.833Z,97828.36
2017-07-23T13:00:39.417Z,97824.39
2017-07-23T13:03:06.869Z,97819.34
2017-07-23T13:05:34.327Z,97827.63
2017-07-23T13:08:02.066Z,97826.20
2017-07-23T13:10:29.516Z,97831.53
2017-07-23T13:12:57.165Z,97823.00
2017-07-23T13:15:24.675Z,97814.14
2017-07-23T13:17:52.327Z,97809.05
2017-07-23T13:20:19.878Z,97806.78
2017-07-23T13:22:47.307Z,97800.48
2017-07-23T13:25:14.765Z,97800.44
2017-07-23T13:27:42.217Z,97792.78
2017-07-23T13:30:09.615Z,97789.53
2017-07-23T13:32:37.046Z,97787.25
2017-07-23T13:35:04.446Z,97785.70
2017-07-23T13:37:31.904Z,97784.57
2017-07-23T13:39:59.320Z,97782.34
2017-07-23T13:42:26.785Z,97774.17
2017-07-23T13:44:54.241Z,97785.67
2017-07-23T13:47:21.667Z,97781.41
2017-07-23T13:49:49.151Z,97780.79
2017-07-23T13:52:17.472Z,97774.69
2017-07-23T13:54:44.927Z,97770.18
2017-07-23T13:57:12.349Z,97771.41
2017-07-23T13:59:39.894Z,97767.64
2017-07-23T14:02:07.346Z,97772.78
2017-07-23T14:04:34.839Z,97769.43
2017-07-23T14:07:02.339Z,97761.09
2017-07-23T14:09:29.817Z,97762.80
2017-07-23T14:11:57.241Z,97755.32
2017-07-23T14:14:24.695Z,97752.08
2017-07-23T14:16:52.114Z,97752.28
2017-07-23T14:19:19.559Z,97764.54
2017-07-23T14:21:46.975Z,97772.12
2017-07-23T14:24:14.567Z,97760.92
2017-07-23T14:26:42.115Z,97760.20
2017-07-23T14:29:09.535Z,97763.86
2017-07-23T14:31:36.979Z,97756.26
2017-07-23T14:34:05.285Z,97757.48
2017-07-23T14:39:06.677Z,97750.50
2017-07-23T14:41:34.111Z,97750.64
2017-07-23T14:44:01.561Z,97741.83
2017-07-23T14:46:28.993Z,97745.53
2017-07-23T14:48:56.447Z,97742.63
2017-07-23T14:51:23.866Z,97743.72
2017-07-23T14:53:51.296Z,97743.23
2017-07-23T14:56:18.740Z,97740.47
2017-07-23T14:58:46.185Z,97735.20
2017-07-23T15:01:13.651Z,97737.20
2017-07-23T15:03:41.096Z,97738.65
2017-07-23T15:06:08.529Z,97726.92
2017-07-23T15:08:35.996Z,97726.86
2017-07-23T15:11:03.401Z,97719.59
2017-07-23T15:13:30.875Z,97717.83
2017-07-23T15:15:58.346Z,97715.08
2017-07-23T15:18:25.756Z,97726.43
2017-07-23T15:20:53.228Z,97711.08
2017-07-23T15:23:20.666Z,97725.95
2017-07-23T15:25:48.098Z,97736.14
2017-07-23T15:28:15.507Z,97732.27
2017-07-23T15:30:43.025Z,97731.05
2017-07-23T15:33:10.490Z,97725.10
2017-07-23T15:35:37.946Z,97718.25
2017-07-23T15:38:05.414Z,97714.83
2017-07-23T15:40:32.864Z,97715.72
2017-07-23T15:43:00.296Z,97720.76
2017-07-23T15:45:27.718Z,97718.22
2017-07-23T15:47:55.148Z,97721.53
2017-07-23T15:50:22.573Z,97716.72
2017-07-23T15:52:50.051Z,97711.91
2017-07-23T15:55:17.469Z,97713.08
2017-07-23T15:57:44.886Z,97715.59
2017-07-23T16:00:12.311Z,97703.00
2017-07-23T16:02:39.726Z,97704.03
2017-07-23T16:05:07.225Z,97702.47
2017-07-23T16:07:34.659Z,97697.17
2017-07-23T16:10:02.075Z,97699.13
2017-07-23T16:12:29.560Z,97686.41
2017-07-23T16:14:56.972Z,97692.56
2017-07-23T16:17:24.417Z,97687.58
2017-07-23T16:19:51.906Z,97692.63
2017-07-23T16:22:19.328Z,97687.17
2017-07-23T16:24:46.766Z,97685.77
2017-07-23T16:27:14.237Z,97681.12
2017-07-23T16:29:41.683Z,97688.66
2017-07-23T16:32:09.108Z,97686.44
2017-07-23T16:34:36.521Z,97692.47
2017-07-23T16:37:03.964Z,97689.94
2017-07-23T16:39:31.399Z,97689.45
2017-07-23T16:41:58.821Z,97686.27
2017-07-23T16:44:26.295Z,97680.14
2017-07-23T16:46:53.728Z,97678.22
2017-07-23T16:49:21.169Z,97676.81
2017-07-23T16:51:48.636Z,97677.88
2017-07-23T16:54:16.122Z,97679.36
2017-07-23T16:56:43.525Z,97681.44
2017-07-23T16:59:10.980Z,97671.50
2017-07-23T17:01:38.635Z,97678.33
2017-07-23T17:04:06.098Z,97665.85
2017-07-23T17:06:33.529Z,97668.65
2017-07-23T17:09:00.981Z,97661.81
2017-07-23T17:11:28.461Z,97666.42
2017-07-23T17:13:55.924Z,97661.41
2017-07-23T17:16:23.415Z,97670.79
2017-07-23T17:18:50.887Z,97672.03
2017-07-23T17:21:18.482Z,97664.62
2017-07-23T17:23:45.971Z,97662.24
2017-07-23T17:26:13.518Z,97662.33
2017-07-23T17:28:41.010Z,97663.97
2017-07-23T17:31:08.447Z,97664.72
2017-07-23T17:33:35.962Z,97664.92
2017-07-23T17:36:03.397Z,97663.36
2017-07-23T17:38:30.916Z,97664.42
2017-07-23T17:40:58.463Z,97660.02
2017-07-23T17:43:25.910Z,97657.52
2017-07-23T17:45:53.316Z,97652.79
2017-07-23T17:48:20.797Z,97655.02
2017-07-23T17:50:48.270Z,97655.59
2017-07-23T17:53:15.717Z,97657.82
2017-07-23T17:55:43.173Z,97663.66
2017-07-23T17:58:10.676Z,97663.39
2017-07-23T18:00:38.199Z,97660.31
2017-07-23T18:03:05.620Z,97659.49
2017-07-23T18:05:33.102Z,97661.98
2017-07-23T18:08:00.619Z,97657.68
2017-07-23T18:10:28.029Z,97665.52
2017-07-23T18:12:55.639Z,97659.23
2017-07-23T18:15:23.088Z,97660.91
2017-07-23T18:17:50.570Z,97661.17
2017-07-23T18:20:18.004Z,97673.20
2017-07-23T18:22:45.471Z,97668.66
2017-07-23T18:25:12.982Z,97666.69
2017-07-23T18:27:40.507Z,97660.02
2017-07-23T18:30:08.083Z,97663.84
2017-07-23T18:32:35.498Z,97660.88
2017-07-23T18:35:02.916Z,97657.07
2017-07-23T18:37:30.396Z,97661.02
2017-07-23T18:39:57.843Z,97658.55
2017-07-23T18:42:25.376Z,97661.97
2017-07-23T18:44:52.901Z,97660.09
2017-07-23T18:47:20.418Z,97660.89
2017-07-23T18:49:47.879Z,97667.09
2017-07-23T18:52:15.457Z,97664.56
2017-07-23T18:54:42.936Z,97668.61
2017-07-23T18:57:10.450Z,97671.36
2017-07-23T18:59:37.989Z,97668.83
2017-07-23T19:02:06.349Z,97667.06
2017-07-23T19:04:33.791Z,97673.17
2017-07-23T19:07:01.290Z,97673.30
2017-07-23T19:09:28.696Z,97676.06
2017-07-23T19:11:56.188Z,97674.17
2017-07-23T19:14:23.692Z,97670.89
2017-07-23T19:16:51.214Z,97675.51
2017-07-23T19:19:18.630Z,97680.05
2017-07-23T19:21:46.232Z,97682.70
2017-07-23T19:24:13.680Z,97688.94
2017-07-23T19:26:41.093Z,97686.09
2017-07-23T19:29:08.535Z,97686.94
2017-07-23T19:31:35.964Z,97683.99
2017-07-23T19:34:03.489Z,97685.64
2017-07-23T19:36:30.916Z,97693.40
2017-07-23T19:38:58.396Z,97696.63
2017-07-23T19:41:25.834Z,97689.36
2017-07-23T19:43:53.294Z,97696.24
2017-07-23T19:46:20.726Z,97699.98
2017-07-23T19:48:48.144Z,97692.41
2017-07-23T19:51:15.661Z,97699.86
2017-07-23T19:53:43.310Z,97703.41
2017-07-23T19:56:10.842Z,97700.59
2017-07-23T19:58:38.436Z,97699.76
2017-07-23T20:01:05.841Z,97700.29
2017-07-23T20:03:33.350Z,97700.09
2017-07-23T20:06:01.809Z,97691.08
2017-07-23T20:08:29.241Z,97695.69
2017-07-23T20:10:56.686Z,97698.29
2017-07-23T20:13:24.094Z,97704.56
2017-07-23T20:15:51.551Z,97696.53
2017-07-23T20:18:18.972Z,97698.84
2017-07-23T20:20:46.453Z,97697.72
2017-07-23T20:23:14.042Z,97701.77
2017-07-23T20:25:41.493Z,97693.85
2017-07-23T20:28:08.912Z,97688.69
2017-07-23T20:30:36.366Z,97693.36
2017-07-23T20:33:03.816Z,97692.94
2017-07-23T20:35:31.285Z,97690.61
2017-07-23T20:37:58.696Z,97687.62
2017-07-23T20:40:26.161Z,97688.01
2017-07-23T20:42:53.595Z,97689.79
2017-07-23T20:45:21.000Z,97688.02
2017-07-23T20:47:48.469Z,97689.02
2017-07-23T20:50:15.907Z,97683.70
2017-07-23T20:52:43.337Z,97683.06
2017-07-23T20:55:10.852Z,97687.27
2017-07-23T20:57:38.347Z,97686.59
2017-07-23T21:00:05.906Z,97683.25
2017-07-23T21:02:33.318Z,97677.23
2017-07-23T21:05:00.813Z,97677.89
2017-07-23T21:07:28.238Z,97686.26
2017-07-23T21:09:55.645Z,97679.39
2017-07-23T21:12:23.136Z,97673.14
2017-07-23T21:14:50.595Z,97662.84
2017-07-23T21:17:18.097Z,97669.33
2017-07-23T21:19:45.528Z,97673.87
2017-07-23T21:22:12.980Z,97672.02
2017-07-23T21:24:40.398Z,97663.15
2017-07-23T21:27:07.819Z,97667.45
2017-07-23T21:29:35.283Z,97668.70
2017-07-23T21:32:02.676Z,97666.25
2017-07-23T21:34:30.299Z,97662.79
2017-07-23T21:36:57.846Z,97665.08
2017-07-23T21:39:25.291Z,97655.94
2017-07-23T21:41:52.697Z,97663.30
2017-07-23T21:44:20.185Z,97657.94
2017-07-23T21:46:47.615Z,97652.20
2017-07-23T21:49:15.046Z,97646.61
2017-07-23T21:51:42.486Z,97647.39
2017-07-23T21:54:09.988Z,97641.72
2017-07-23T21:56:37.560Z,97640.09
2017-07-23T21:59:04.982Z,97642.47
2017-07-23T22:01:32.387Z,97644.95
2017-07-23T22:03:59.841Z,97641.97
2017-07-23T22:06:27.285Z,97636.62
2017-07-23T22:08:54.720Z,97630.95
2017-07-23T22:11:22.136Z,97625.03
2017-07-23T22:13:49.731Z,97622.99
2017-07-23T22:16:17.124Z,97616.97
2017-07-23T22:18:44.525Z,97607.33
2017-07-23T22:21:11.989Z,97610.11
2017-07-23T22:23:39.397Z,97611.55
2017-07-23T22:26:06.835Z,97612.32
2017-07-23T22:28:34.259Z,97609.30
2017-07-23T22:31:01.677Z,97604.77
2017-07-23T22:33:29.145Z,97602.05
2017-07-23T22:35:56.557Z,97601.11
2017-07-23T22:38:23.992Z,97594.05
2017-07-23T22:40:51.404Z,97597.84
2017-07-23T22:43:18.840Z,97585.66
2017-07-23T22:45:46.363Z,97579.19
2017-07-23T22:48:13.832Z,97580.42
2017-07-23T22:50:42.282Z,97566.33
2017-07-23T22:53:09.704Z,97567.97
2017-07-23T22:55:37.283Z,97566.27
2017-07-23T22:58:04.715Z,97559.12
2017-07-23T23:00:32.124Z,97557.78
2017-07-23T23:02:59.562Z,97557.12
2017-07-23T23:05:27.029Z,97557.34
2017-07-23T23:07:54.472Z,97560.23
2017-07-23T23:10:21.903Z,97552.89
2017-07-23T23:12:49.348Z,97546.09
2017-07-23T23:15:16.768Z,97543.89
2017-07-23T23:17:44.182Z,97533.01
2017-07-23T23:20:11.623Z,97538.45
2017-07-23T23:22:39.028Z,97538.61
2017-07-23T23:25:06.436Z,97532.23
2017-07-23T23:27:33.862Z,97535.22
2017-07-23T23:30:01.280Z,97535.44
2017-07-23T23:32:28.772Z,97532.94
2017-07-23T23:34:56.195Z,97526.23
2017-07-23T23:37:23.599Z,97524.94
2017-07-23T23:39:51.032Z,97522.05
2017-07-23T23:42:18.464Z,97525.05
2017-07-23T23:44:45.903Z,97528.80
2017-07-23T23:47:13.335Z,97524.56
2017-07-23T23:49:40.764Z,97513.73
2017-07-23T23:52:08.192Z,97504.38
2017-07-23T23:54:35.583Z,97498.27
2017-07-23T23:57:03.034Z,97497.47
2017-07-23T23:59:30.461Z,97489.03
